sensor_id;sensor_type;location;lat;lon;timestamp;P1;durP1;ratioP1;P2;durP2;ratioP2
21148;SDS011;10732;51.472;6.466;2023-08-24T00:02:00;12.10;;;7.57;;
21148;SDS011;10732;51.472;6.466;2023-08-24T00:04:26;15.10;;;8.50;;
21148;SDS011;10732;51.472;6.466;2023-08-24T00:06:52;12.98;;;8.20;;
21148;SDS011;10732;51.472;6.466;2023-08-24T00:09:18;13.13;;;7.90;;
21148;SDS011;10732;51.472;6.466;2023-08-24T00:11:44;11.50;;;8.13;;
21148;SDS011;10732;51.472;6.466;2023-08-24T00:14:10;14.20;;;8.18;;
21148;SDS011;10732;51.472;6.466;2023-08-24T00:16:35;11.32;;;8.35;;
21148;SDS011;10732;51.472;6.466;2023-08-24T00:19:01;10.10;;;8.38;;
21148;SDS011;10732;51.472;6.466;2023-08-24T00:21:26;14.23;;;8.50;;
21148;SDS011;10732;51.472;6.466;2023-08-24T00:23:53;13.82;;;8.68;;
21148;SDS011;10732;51.472;6.466;2023-08-24T00:26:19;14.20;;;8.90;;
21148;SDS011;10732;51.472;6.466;2023-08-24T00:28:45;14.52;;;9.23;;
21148;SDS011;10732;51.472;6.466;2023-08-24T00:31:11;14.73;;;9.40;;
21148;SDS011;10732;51.472;6.466;2023-08-24T00:33:37;16.38;;;9.75;;
21148;SDS011;10732;51.472;6.466;2023-08-24T00:36:04;13.52;;;9.70;;
21148;SDS011;10732;51.472;6.466;2023-08-24T00:38:30;16.33;;;10.27;;
21148;SDS011;10732;51.472;6.466;2023-08-24T00:40:56;14.98;;;9.40;;
21148;SDS011;10732;51.472;6.466;2023-08-24T00:43:23;11.77;;;9.13;;
21148;SDS011;10732;51.472;6.466;2023-08-24T00:45:52;14.15;;;9.52;;
21148;SDS011;10732;51.472;6.466;2023-08-24T00:48:20;13.40;;;9.85;;
21148;SDS011;10732;51.472;6.466;2023-08-24T00:50:50;15.50;;;10.38;;
21148;SDS011;10732;51.472;6.466;2023-08-24T00:53:17;14.00;;;9.88;;
21148;SDS011;10732;51.472;6.466;2023-08-24T00:55:44;17.85;;;11.23;;
21148;SDS011;10732;51.472;6.466;2023-08-24T00:58:09;13.70;;;10.13;;
21148;SDS011;10732;51.472;6.466;2023-08-24T01:00:35;14.75;;;10.10;;
21148;SDS011;10732;51.472;6.466;2023-08-24T01:03:01;16.48;;;11.23;;
21148;SDS011;10732;51.472;6.466;2023-08-24T01:05:26;16.33;;;10.45;;
21148;SDS011;10732;51.472;6.466;2023-08-24T01:07:53;15.23;;;11.20;;
21148;SDS011;10732;51.472;6.466;2023-08-24T01:10:18;15.20;;;10.70;;
21148;SDS011;10732;51.472;6.466;2023-08-24T01:12:52;15.00;;;10.73;;
21148;SDS011;10732;51.472;6.466;2023-08-24T01:15:33;17.85;;;11.40;;
21148;SDS011;10732;51.472;6.466;2023-08-24T01:18:11;16.27;;;10.80;;
21148;SDS011;10732;51.472;6.466;2023-08-24T01:20:40;19.17;;;11.85;;
21148;SDS011;10732;51.472;6.466;2023-08-24T01:23:09;14.13;;;11.60;;
21148;SDS011;10732;51.472;6.466;2023-08-24T01:26:27;15.45;;;11.65;;
21148;SDS011;10732;51.472;6.466;2023-08-24T01:28:36;16.98;;;11.52;;
21148;SDS011;10732;51.472;6.466;2023-08-24T01:31:03;16.80;;;12.07;;
21148;SDS011;10732;51.472;6.466;2023-08-24T01:33:30;14.10;;;11.18;;
21148;SDS011;10732;51.472;6.466;2023-08-24T01:35:56;20.40;;;12.93;;
21148;SDS011;10732;51.472;6.466;2023-08-24T01:38:21;13.82;;;10.77;;
21148;SDS011;10732;51.472;6.466;2023-08-24T01:40:55;16.42;;;10.95;;
21148;SDS011;10732;51.472;6.466;2023-08-24T01:43:31;15.07;;;10.75;;
21148;SDS011;10732;51.472;6.466;2023-08-24T01:46:01;16.58;;;11.27;;
21148;SDS011;10732;51.472;6.466;2023-08-24T01:48:29;15.05;;;11.32;;
21148;SDS011;10732;51.472;6.466;2023-08-24T01:50:56;14.80;;;11.35;;
21148;SDS011;10732;51.472;6.466;2023-08-24T01:53:22;16.58;;;10.93;;
21148;SDS011;10732;51.472;6.466;2023-08-24T01:55:48;16.27;;;10.70;;
21148;SDS011;10732;51.472;6.466;2023-08-24T01:58:14;15.10;;;11.68;;
21148;SDS011;10732;51.472;6.466;2023-08-24T02:00:40;19.92;;;11.85;;
21148;SDS011;10732;51.472;6.466;2023-08-24T02:03:06;18.23;;;12.52;;
21148;SDS011;10732;51.472;6.466;2023-08-24T02:05:31;20.95;;;13.25;;
21148;SDS011;10732;51.472;6.466;2023-08-24T02:07:57;16.63;;;12.48;;
21148;SDS011;10732;51.472;6.466;2023-08-24T02:10:24;20.52;;;13.48;;
21148;SDS011;10732;51.472;6.466;2023-08-24T02:12:50;18.45;;;12.75;;
21148;SDS011;10732;51.472;6.466;2023-08-24T02:15:16;16.88;;;12.75;;
21148;SDS011;10732;51.472;6.466;2023-08-24T02:17:42;21.50;;;13.23;;
21148;SDS011;10732;51.472;6.466;2023-08-24T02:20:07;19.17;;;12.95;;
21148;SDS011;10732;51.472;6.466;2023-08-24T02:22:33;16.92;;;12.60;;
21148;SDS011;10732;51.472;6.466;2023-08-24T02:24:59;18.20;;;13.43;;
21148;SDS011;10732;51.472;6.466;2023-08-24T02:27:26;18.33;;;13.80;;
21148;SDS011;10732;51.472;6.466;2023-08-24T02:29:51;17.98;;;13.15;;
21148;SDS011;10732;51.472;6.466;2023-08-24T02:32:17;21.20;;;14.32;;
21148;SDS011;10732;51.472;6.466;2023-08-24T02:34:42;20.65;;;13.20;;
21148;SDS011;10732;51.472;6.466;2023-08-24T02:37:08;21.75;;;14.15;;
21148;SDS011;10732;51.472;6.466;2023-08-24T02:39:34;20.30;;;13.73;;
21148;SDS011;10732;51.472;6.466;2023-08-24T02:42:00;19.65;;;14.13;;
21148;SDS011;10732;51.472;6.466;2023-08-24T02:44:26;19.42;;;13.70;;
21148;SDS011;10732;51.472;6.466;2023-08-24T02:46:51;20.35;;;14.60;;
21148;SDS011;10732;51.472;6.466;2023-08-24T02:49:18;19.15;;;12.50;;
21148;SDS011;10732;51.472;6.466;2023-08-24T02:51:44;22.80;;;14.55;;
21148;SDS011;10732;51.472;6.466;2023-08-24T02:54:09;24.27;;;13.77;;
21148;SDS011;10732;51.472;6.466;2023-08-24T02:56:35;21.02;;;14.18;;
21148;SDS011;10732;51.472;6.466;2023-08-24T02:59:00;22.70;;;14.32;;
21148;SDS011;10732;51.472;6.466;2023-08-24T03:01:26;19.17;;;14.45;;
21148;SDS011;10732;51.472;6.466;2023-08-24T03:03:51;22.02;;;14.48;;
21148;SDS011;10732;51.472;6.466;2023-08-24T03:06:17;19.98;;;13.85;;
21148;SDS011;10732;51.472;6.466;2023-08-24T03:08:43;18.15;;;13.48;;
21148;SDS011;10732;51.472;6.466;2023-08-24T03:11:08;18.63;;;13.68;;
21148;SDS011;10732;51.472;6.466;2023-08-24T03:13:35;17.38;;;13.27;;
21148;SDS011;10732;51.472;6.466;2023-08-24T03:16:03;18.10;;;13.40;;
21148;SDS011;10732;51.472;6.466;2023-08-24T03:18:30;16.52;;;13.80;;
21148;SDS011;10732;51.472;6.466;2023-08-24T03:20:55;18.25;;;14.00;;
21148;SDS011;10732;51.472;6.466;2023-08-24T03:23:21;18.35;;;13.95;;
21148;SDS011;10732;51.472;6.466;2023-08-24T03:25:47;16.95;;;13.35;;
21148;SDS011;10732;51.472;6.466;2023-08-24T03:28:12;23.13;;;14.18;;
21148;SDS011;10732;51.472;6.466;2023-08-24T03:30:39;16.30;;;13.45;;
21148;SDS011;10732;51.472;6.466;2023-08-24T03:33:10;17.85;;;13.27;;
21148;SDS011;10732;51.472;6.466;2023-08-24T03:35:35;19.90;;;14.15;;
21148;SDS011;10732;51.472;6.466;2023-08-24T03:38:01;22.23;;;15.82;;
21148;SDS011;10732;51.472;6.466;2023-08-24T03:40:28;21.23;;;14.35;;
21148;SDS011;10732;51.472;6.466;2023-08-24T03:42:53;22.15;;;14.60;;
21148;SDS011;10732;51.472;6.466;2023-08-24T03:45:19;18.98;;;14.93;;
21148;SDS011;10732;51.472;6.466;2023-08-24T03:47:45;21.45;;;15.13;;
21148;SDS011;10732;51.472;6.466;2023-08-24T03:50:11;18.48;;;14.40;;
21148;SDS011;10732;51.472;6.466;2023-08-24T03:52:36;21.60;;;14.27;;
21148;SDS011;10732;51.472;6.466;2023-08-24T03:55:04;21.20;;;15.18;;
21148;SDS011;10732;51.472;6.466;2023-08-24T03:57:30;20.13;;;15.00;;
21148;SDS011;10732;51.472;6.466;2023-08-24T03:59:55;22.35;;;15.23;;
21148;SDS011;10732;51.472;6.466;2023-08-24T04:02:22;18.98;;;14.38;;
21148;SDS011;10732;51.472;6.466;2023-08-24T04:04:47;19.23;;;15.07;;
21148;SDS011;10732;51.472;6.466;2023-08-24T04:07:14;22.60;;;16.05;;
21148;SDS011;10732;51.472;6.466;2023-08-24T04:09:40;22.90;;;16.63;;
21148;SDS011;10732;51.472;6.466;2023-08-24T04:12:06;25.92;;;17.60;;
21148;SDS011;10732;51.472;6.466;2023-08-24T04:14:32;23.50;;;18.23;;
21148;SDS011;10732;51.472;6.466;2023-08-24T04:16:57;23.55;;;17.17;;
21148;SDS011;10732;51.472;6.466;2023-08-24T04:19:23;29.08;;;20.98;;
21148;SDS011;10732;51.472;6.466;2023-08-24T04:21:48;24.90;;;20.70;;
21148;SDS011;10732;51.472;6.466;2023-08-24T04:24:14;24.80;;;20.58;;
21148;SDS011;10732;51.472;6.466;2023-08-24T04:26:39;27.33;;;21.38;;
21148;SDS011;10732;51.472;6.466;2023-08-24T04:29:05;26.30;;;20.13;;
21148;SDS011;10732;51.472;6.466;2023-08-24T04:31:30;26.08;;;21.13;;
21148;SDS011;10732;51.472;6.466;2023-08-24T04:33:56;26.83;;;20.83;;
21148;SDS011;10732;51.472;6.466;2023-08-24T04:36:21;27.95;;;20.45;;
21148;SDS011;10732;51.472;6.466;2023-08-24T04:38:47;25.85;;;20.73;;
21148;SDS011;10732;51.472;6.466;2023-08-24T04:41:12;27.85;;;20.33;;
21148;SDS011;10732;51.472;6.466;2023-08-24T04:43:38;21.98;;;18.25;;
21148;SDS011;10732;51.472;6.466;2023-08-24T04:46:03;24.55;;;17.70;;
21148;SDS011;10732;51.472;6.466;2023-08-24T04:48:29;23.05;;;17.63;;
21148;SDS011;10732;51.472;6.466;2023-08-24T04:50:59;20.92;;;15.20;;
21148;SDS011;10732;51.472;6.466;2023-08-24T04:53:28;17.13;;;15.15;;
21148;SDS011;10732;51.472;6.466;2023-08-24T04:55:54;21.58;;;15.45;;
21148;SDS011;10732;51.472;6.466;2023-08-24T04:58:19;21.65;;;14.98;;
21148;SDS011;10732;51.472;6.466;2023-08-24T05:00:45;17.92;;;13.25;;
21148;SDS011;10732;51.472;6.466;2023-08-24T05:03:11;19.65;;;13.05;;
21148;SDS011;10732;51.472;6.466;2023-08-24T05:05:37;17.52;;;12.30;;
21148;SDS011;10732;51.472;6.466;2023-08-24T05:08:03;17.27;;;12.10;;
21148;SDS011;10732;51.472;6.466;2023-08-24T05:10:39;21.08;;;12.80;;
21148;SDS011;10732;51.472;6.466;2023-08-24T05:13:04;16.48;;;11.18;;
21148;SDS011;10732;51.472;6.466;2023-08-24T05:15:30;17.70;;;11.45;;
21148;SDS011;10732;51.472;6.466;2023-08-24T05:17:55;17.50;;;11.23;;
21148;SDS011;10732;51.472;6.466;2023-08-24T05:20:24;14.88;;;11.07;;
21148;SDS011;10732;51.472;6.466;2023-08-24T05:22:53;17.58;;;10.77;;
21148;SDS011;10732;51.472;6.466;2023-08-24T05:25:22;18.02;;;11.65;;
21148;SDS011;10732;51.472;6.466;2023-08-24T05:27:47;15.88;;;10.35;;
21148;SDS011;10732;51.472;6.466;2023-08-24T05:30:13;16.55;;;11.43;;
21148;SDS011;10732;51.472;6.466;2023-08-24T05:32:39;16.40;;;11.50;;
21148;SDS011;10732;51.472;6.466;2023-08-24T05:35:05;13.65;;;10.75;;
21148;SDS011;10732;51.472;6.466;2023-08-24T05:37:31;14.30;;;11.20;;
21148;SDS011;10732;51.472;6.466;2023-08-24T05:39:58;17.17;;;10.77;;
21148;SDS011;10732;51.472;6.466;2023-08-24T05:42:24;16.92;;;11.40;;
21148;SDS011;10732;51.472;6.466;2023-08-24T05:44:50;14.45;;;11.05;;
21148;SDS011;10732;51.472;6.466;2023-08-24T05:47:15;15.13;;;11.10;;
21148;SDS011;10732;51.472;6.466;2023-08-24T05:49:41;12.80;;;11.15;;
21148;SDS011;10732;51.472;6.466;2023-08-24T05:52:06;15.32;;;11.52;;
21148;SDS011;10732;51.472;6.466;2023-08-24T05:54:32;17.17;;;11.45;;
21148;SDS011;10732;51.472;6.466;2023-08-24T05:56:57;14.82;;;11.13;;
21148;SDS011;10732;51.472;6.466;2023-08-24T05:59:25;16.15;;;10.70;;
21148;SDS011;10732;51.472;6.466;2023-08-24T06:01:51;17.10;;;10.18;;
21148;SDS011;10732;51.472;6.466;2023-08-24T06:04:17;13.20;;;9.32;;
21148;SDS011;10732;51.472;6.466;2023-08-24T06:06:42;14.90;;;8.52;;
21148;SDS011;10732;51.472;6.466;2023-08-24T06:09:08;11.15;;;8.52;;
21148;SDS011;10732;51.472;6.466;2023-08-24T06:11:35;13.60;;;8.48;;
21148;SDS011;10732;51.472;6.466;2023-08-24T06:14:00;13.27;;;8.23;;
21148;SDS011;10732;51.472;6.466;2023-08-24T06:16:27;12.02;;;7.93;;
21148;SDS011;10732;51.472;6.466;2023-08-24T06:18:53;12.82;;;8.18;;
21148;SDS011;10732;51.472;6.466;2023-08-24T06:21:19;11.85;;;7.60;;
21148;SDS011;10732;51.472;6.466;2023-08-24T06:23:44;9.93;;;7.40;;
21148;SDS011;10732;51.472;6.466;2023-08-24T06:26:12;12.73;;;7.70;;
21148;SDS011;10732;51.472;6.466;2023-08-24T06:28:42;11.32;;;7.28;;
21148;SDS011;10732;51.472;6.466;2023-08-24T06:31:07;10.55;;;6.85;;
21148;SDS011;10732;51.472;6.466;2023-08-24T06:33:33;11.45;;;6.95;;
21148;SDS011;10732;51.472;6.466;2023-08-24T06:35:59;10.52;;;7.22;;
21148;SDS011;10732;51.472;6.466;2023-08-24T06:38:26;11.00;;;6.65;;
21148;SDS011;10732;51.472;6.466;2023-08-24T06:40:52;12.75;;;6.78;;
21148;SDS011;10732;51.472;6.466;2023-08-24T06:43:17;10.32;;;6.75;;
21148;SDS011;10732;51.472;6.466;2023-08-24T06:45:46;9.88;;;6.90;;
21148;SDS011;10732;51.472;6.466;2023-08-24T06:48:11;11.63;;;7.53;;
21148;SDS011;10732;51.472;6.466;2023-08-24T06:50:37;10.50;;;6.88;;
21148;SDS011;10732;51.472;6.466;2023-08-24T06:53:03;9.35;;;6.57;;
21148;SDS011;10732;51.472;6.466;2023-08-24T06:55:29;11.80;;;6.55;;
21148;SDS011;10732;51.472;6.466;2023-08-24T06:57:54;12.48;;;6.65;;
21148;SDS011;10732;51.472;6.466;2023-08-24T07:00:21;12.80;;;6.85;;
21148;SDS011;10732;51.472;6.466;2023-08-24T07:02:47;10.75;;;6.10;;
21148;SDS011;10732;51.472;6.466;2023-08-24T07:05:13;10.82;;;6.32;;
21148;SDS011;10732;51.472;6.466;2023-08-24T07:07:39;12.32;;;6.25;;
21148;SDS011;10732;51.472;6.466;2023-08-24T07:10:08;10.55;;;6.53;;
21148;SDS011;10732;51.472;6.466;2023-08-24T07:12:34;11.25;;;6.35;;
21148;SDS011;10732;51.472;6.466;2023-08-24T07:14:59;9.18;;;5.90;;
21148;SDS011;10732;51.472;6.466;2023-08-24T07:17:25;12.18;;;6.35;;
21148;SDS011;10732;51.472;6.466;2023-08-24T07:19:50;11.63;;;6.90;;
21148;SDS011;10732;51.472;6.466;2023-08-24T07:22:16;11.45;;;6.60;;
21148;SDS011;10732;51.472;6.466;2023-08-24T07:24:42;10.82;;;6.80;;
21148;SDS011;10732;51.472;6.466;2023-08-24T07:27:08;10.02;;;6.60;;
21148;SDS011;10732;51.472;6.466;2023-08-24T07:29:33;9.95;;;6.63;;
21148;SDS011;10732;51.472;6.466;2023-08-24T07:31:59;10.13;;;5.93;;
21148;SDS011;10732;51.472;6.466;2023-08-24T07:34:25;8.88;;;5.80;;
21148;SDS011;10732;51.472;6.466;2023-08-24T07:36:50;10.25;;;6.18;;
21148;SDS011;10732;51.472;6.466;2023-08-24T07:39:16;11.63;;;5.55;;
21148;SDS011;10732;51.472;6.466;2023-08-24T07:41:41;9.35;;;5.05;;
21148;SDS011;10732;51.472;6.466;2023-08-24T07:44:07;8.05;;;5.07;;
21148;SDS011;10732;51.472;6.466;2023-08-24T07:46:33;7.30;;;4.63;;
21148;SDS011;10732;51.472;6.466;2023-08-24T07:48:59;6.43;;;5.20;;
21148;SDS011;10732;51.472;6.466;2023-08-24T07:51:25;8.70;;;4.80;;
21148;SDS011;10732;51.472;6.466;2023-08-24T07:53:50;9.90;;;4.57;;
21148;SDS011;10732;51.472;6.466;2023-08-24T07:56:17;6.90;;;3.88;;
21148;SDS011;10732;51.472;6.466;2023-08-24T07:58:43;7.93;;;3.97;;
21148;SDS011;10732;51.472;6.466;2023-08-24T08:01:09;5.53;;;4.03;;
21148;SDS011;10732;51.472;6.466;2023-08-24T08:03:35;6.95;;;4.07;;
21148;SDS011;10732;51.472;6.466;2023-08-24T08:06:00;8.50;;;4.65;;
21148;SDS011;10732;51.472;6.466;2023-08-24T08:08:26;6.18;;;3.70;;
21148;SDS011;10732;51.472;6.466;2023-08-24T08:10:58;8.85;;;4.38;;
21148;SDS011;10732;51.472;6.466;2023-08-24T08:13:26;6.05;;;3.92;;
21148;SDS011;10732;51.472;6.466;2023-08-24T08:15:52;9.05;;;3.92;;
21148;SDS011;10732;51.472;6.466;2023-08-24T08:18:18;7.00;;;3.70;;
21148;SDS011;10732;51.472;6.466;2023-08-24T08:20:44;6.03;;;4.13;;
21148;SDS011;10732;51.472;6.466;2023-08-24T08:23:09;4.38;;;3.30;;
21148;SDS011;10732;51.472;6.466;2023-08-24T08:25:35;6.13;;;4.03;;
21148;SDS011;10732;51.472;6.466;2023-08-24T08:28:00;7.25;;;4.10;;
21148;SDS011;10732;51.472;6.466;2023-08-24T08:30:26;6.22;;;3.33;;
21148;SDS011;10732;51.472;6.466;2023-08-24T08:32:51;6.30;;;3.45;;
21148;SDS011;10732;51.472;6.466;2023-08-24T08:35:17;4.32;;;2.97;;
21148;SDS011;10732;51.472;6.466;2023-08-24T08:37:44;5.13;;;3.38;;
21148;SDS011;10732;51.472;6.466;2023-08-24T08:40:10;6.07;;;3.63;;
21148;SDS011;10732;51.472;6.466;2023-08-24T08:42:36;7.75;;;3.42;;
21148;SDS011;10732;51.472;6.466;2023-08-24T08:45:02;8.25;;;3.50;;
21148;SDS011;10732;51.472;6.466;2023-08-24T08:47:34;3.78;;;3.00;;
21148;SDS011;10732;51.472;6.466;2023-08-24T08:49:59;5.60;;;3.25;;
21148;SDS011;10732;51.472;6.466;2023-08-24T08:52:28;6.68;;;3.47;;
21148;SDS011;10732;51.472;6.466;2023-08-24T08:54:53;9.00;;;3.17;;
21148;SDS011;10732;51.472;6.466;2023-08-24T08:57:19;5.13;;;3.50;;
21148;SDS011;10732;51.472;6.466;2023-08-24T08:59:47;6.15;;;3.63;;
21148;SDS011;10732;51.472;6.466;2023-08-24T09:02:16;5.50;;;3.30;;
21148;SDS011;10732;51.472;6.466;2023-08-24T09:04:44;6.30;;;3.40;;
21148;SDS011;10732;51.472;6.466;2023-08-24T09:07:11;7.35;;;3.63;;
21148;SDS011;10732;51.472;6.466;2023-08-24T09:09:38;6.65;;;3.50;;
21148;SDS011;10732;51.472;6.466;2023-08-24T09:12:07;6.82;;;3.72;;
21148;SDS011;10732;51.472;6.466;2023-08-24T09:14:33;7.70;;;4.50;;
21148;SDS011;10732;51.472;6.466;2023-08-24T09:16:59;6.63;;;4.50;;
21148;SDS011;10732;51.472;6.466;2023-08-24T09:19:28;8.02;;;4.25;;
21148;SDS011;10732;51.472;6.466;2023-08-24T09:21:58;9.52;;;4.53;;
21148;SDS011;10732;51.472;6.466;2023-08-24T09:27:00;8.77;;;4.10;;
21148;SDS011;10732;51.472;6.466;2023-08-24T09:29:50;9.93;;;3.90;;
21148;SDS011;10732;51.472;6.466;2023-08-24T09:32:23;10.80;;;3.75;;
21148;SDS011;10732;51.472;6.466;2023-08-24T09:34:49;6.05;;;3.70;;
21148;SDS011;10732;51.472;6.466;2023-08-24T09:37:15;8.43;;;4.07;;
21148;SDS011;10732;51.472;6.466;2023-08-24T09:39:41;8.02;;;3.80;;
21148;SDS011;10732;51.472;6.466;2023-08-24T09:42:10;7.43;;;4.07;;
21148;SDS011;10732;51.472;6.466;2023-08-24T09:44:35;8.63;;;3.90;;
21148;SDS011;10732;51.472;6.466;2023-08-24T09:47:01;7.38;;;3.63;;
21148;SDS011;10732;51.472;6.466;2023-08-24T09:49:28;8.30;;;4.10;;
21148;SDS011;10732;51.472;6.466;2023-08-24T09:51:56;6.63;;;3.47;;
21148;SDS011;10732;51.472;6.466;2023-08-24T09:54:24;7.55;;;3.45;;
21148;SDS011;10732;51.472;6.466;2023-08-24T09:56:52;5.13;;;3.60;;
21148;SDS011;10732;51.472;6.466;2023-08-24T09:59:23;6.75;;;3.90;;
21148;SDS011;10732;51.472;6.466;2023-08-24T10:01:52;6.45;;;3.58;;
21148;SDS011;10732;51.472;6.466;2023-08-24T10:04:22;8.90;;;3.63;;
21148;SDS011;10732;51.472;6.466;2023-08-24T10:06:54;7.63;;;3.70;;
21148;SDS011;10732;51.472;6.466;2023-08-24T10:09:25;6.30;;;3.70;;
21148;SDS011;10732;51.472;6.466;2023-08-24T10:11:58;9.15;;;4.32;;
21148;SDS011;10732;51.472;6.466;2023-08-24T10:16:57;9.30;;;4.40;;
21148;SDS011;10732;51.472;6.466;2023-08-24T10:19:23;9.70;;;4.28;;
21148;SDS011;10732;51.472;6.466;2023-08-24T10:21:50;10.35;;;4.20;;
21148;SDS011;10732;51.472;6.466;2023-08-24T10:24:18;11.32;;;4.68;;
21148;SDS011;10732;51.472;6.466;2023-08-24T10:26:46;6.65;;;3.85;;
21148;SDS011;10732;51.472;6.466;2023-08-24T10:29:13;7.65;;;3.85;;
21148;SDS011;10732;51.472;6.466;2023-08-24T10:31:39;6.30;;;3.38;;
21148;SDS011;10732;51.472;6.466;2023-08-24T10:34:06;6.07;;;3.15;;
21148;SDS011;10732;51.472;6.466;2023-08-24T10:36:32;7.57;;;3.28;;
21148;SDS011;10732;51.472;6.466;2023-08-24T10:39:01;7.53;;;3.25;;
21148;SDS011;10732;51.472;6.466;2023-08-24T10:41:52;6.20;;;3.30;;
21148;SDS011;10732;51.472;6.466;2023-08-24T10:44:36;6.65;;;3.20;;
21148;SDS011;10732;51.472;6.466;2023-08-24T10:49:40;6.00;;;3.55;;
21148;SDS011;10732;51.472;6.466;2023-08-24T10:52:22;5.47;;;3.50;;
21148;SDS011;10732;51.472;6.466;2023-08-24T10:54:54;7.32;;;3.42;;
21148;SDS011;10732;51.472;6.466;2023-08-24T10:57:24;7.32;;;3.67;;
21148;SDS011;10732;51.472;6.466;2023-08-24T10:59:59;7.53;;;3.15;;
21148;SDS011;10732;51.472;6.466;2023-08-24T11:02:49;6.50;;;3.17;;
21148;SDS011;10732;51.472;6.466;2023-08-24T11:05:16;7.18;;;3.40;;
21148;SDS011;10732;51.472;6.466;2023-08-24T11:10:19;5.82;;;3.20;;
21148;SDS011;10732;51.472;6.466;2023-08-24T11:15:31;6.47;;;3.38;;
21148;SDS011;10732;51.472;6.466;2023-08-24T11:20:56;8.30;;;3.35;;
21148;SDS011;10732;51.472;6.466;2023-08-24T11:23:26;4.45;;;3.35;;
21148;SDS011;10732;51.472;6.466;2023-08-24T11:25:53;7.45;;;3.38;;
21148;SDS011;10732;51.472;6.466;2023-08-24T11:28:22;5.22;;;3.38;;
21148;SDS011;10732;51.472;6.466;2023-08-24T11:30:57;5.40;;;3.55;;
21148;SDS011;10732;51.472;6.466;2023-08-24T11:33:30;4.95;;;3.30;;
21148;SDS011;10732;51.472;6.466;2023-08-24T11:36:00;8.73;;;3.55;;
21148;SDS011;10732;51.472;6.466;2023-08-24T11:38:41;6.20;;;3.30;;
21148;SDS011;10732;51.472;6.466;2023-08-24T11:41:14;6.43;;;3.90;;
21148;SDS011;10732;51.472;6.466;2023-08-24T11:43:42;6.05;;;3.85;;
21148;SDS011;10732;51.472;6.466;2023-08-24T11:46:12;9.30;;;3.75;;
21148;SDS011;10732;51.472;6.466;2023-08-24T11:48:40;8.02;;;3.45;;
21148;SDS011;10732;51.472;6.466;2023-08-24T11:51:12;5.18;;;3.30;;
21148;SDS011;10732;51.472;6.466;2023-08-24T11:53:42;7.88;;;3.50;;
21148;SDS011;10732;51.472;6.466;2023-08-24T11:56:09;4.65;;;3.45;;
21148;SDS011;10732;51.472;6.466;2023-08-24T11:58:38;6.25;;;3.75;;
21148;SDS011;10732;51.472;6.466;2023-08-24T12:01:07;6.97;;;3.45;;
21148;SDS011;10732;51.472;6.466;2023-08-24T12:03:34;7.65;;;3.40;;
21148;SDS011;10732;51.472;6.466;2023-08-24T12:06:02;8.88;;;3.80;;
21148;SDS011;10732;51.472;6.466;2023-08-24T12:08:36;4.70;;;3.65;;
21148;SDS011;10732;51.472;6.466;2023-08-24T12:11:09;6.43;;;3.60;;
21148;SDS011;10732;51.472;6.466;2023-08-24T12:13:35;7.47;;;3.35;;
21148;SDS011;10732;51.472;6.466;2023-08-24T12:16:02;4.43;;;3.53;;
21148;SDS011;10732;51.472;6.466;2023-08-24T12:18:28;5.63;;;3.58;;
21148;SDS011;10732;51.472;6.466;2023-08-24T12:20:53;4.80;;;3.15;;
21148;SDS011;10732;51.472;6.466;2023-08-24T12:23:19;8.00;;;3.38;;
21148;SDS011;10732;51.472;6.466;2023-08-24T12:25:45;4.88;;;3.45;;
21148;SDS011;10732;51.472;6.466;2023-08-24T12:28:11;7.13;;;3.60;;
21148;SDS011;10732;51.472;6.466;2023-08-24T12:33:21;12.38;;;4.22;;
21148;SDS011;10732;51.472;6.466;2023-08-24T12:35:50;5.82;;;3.88;;
21148;SDS011;10732;51.472;6.466;2023-08-24T12:38:16;12.05;;;4.30;;
21148;SDS011;10732;51.472;6.466;2023-08-24T12:40:42;7.40;;;4.25;;
21148;SDS011;10732;51.472;6.466;2023-08-24T12:43:07;8.13;;;4.18;;
21148;SDS011;10732;51.472;6.466;2023-08-24T12:45:33;7.68;;;4.03;;
21148;SDS011;10732;51.472;6.466;2023-08-24T12:47:58;7.28;;;3.80;;
21148;SDS011;10732;51.472;6.466;2023-08-24T12:50:24;11.32;;;4.10;;
21148;SDS011;10732;51.472;6.466;2023-08-24T12:52:49;9.52;;;3.83;;
21148;SDS011;10732;51.472;6.466;2023-08-24T12:55:20;9.40;;;3.78;;
21148;SDS011;10732;51.472;6.466;2023-08-24T12:57:46;10.32;;;4.18;;
21148;SDS011;10732;51.472;6.466;2023-08-24T13:00:11;6.05;;;4.15;;
21148;SDS011;10732;51.472;6.466;2023-08-24T13:02:38;11.45;;;4.43;;
21148;SDS011;10732;51.472;6.466;2023-08-24T13:05:04;8.27;;;4.40;;
21148;SDS011;10732;51.472;6.466;2023-08-24T13:07:30;5.70;;;3.75;;
21148;SDS011;10732;51.472;6.466;2023-08-24T13:09:56;8.20;;;3.80;;
21148;SDS011;10732;51.472;6.466;2023-08-24T13:12:22;9.15;;;3.90;;
21148;SDS011;10732;51.472;6.466;2023-08-24T13:14:49;8.82;;;4.20;;
21148;SDS011;10732;51.472;6.466;2023-08-24T13:17:15;6.93;;;3.80;;
21148;SDS011;10732;51.472;6.466;2023-08-24T13:19:40;7.28;;;3.83;;
21148;SDS011;10732;51.472;6.466;2023-08-24T13:22:06;8.10;;;3.60;;
21148;SDS011;10732;51.472;6.466;2023-08-24T13:24:33;5.78;;;3.78;;
21148;SDS011;10732;51.472;6.466;2023-08-24T13:26:58;6.85;;;3.83;;
21148;SDS011;10732;51.472;6.466;2023-08-24T13:29:24;7.90;;;3.28;;
21148;SDS011;10732;51.472;6.466;2023-08-24T13:31:50;8.75;;;3.53;;
21148;SDS011;10732;51.472;6.466;2023-08-24T13:34:16;6.78;;;3.08;;
21148;SDS011;10732;51.472;6.466;2023-08-24T13:36:42;7.95;;;3.00;;
21148;SDS011;10732;51.472;6.466;2023-08-24T13:39:07;8.73;;;3.17;;
21148;SDS011;10732;51.472;6.466;2023-08-24T13:41:33;8.15;;;3.80;;
21148;SDS011;10732;51.472;6.466;2023-08-24T13:43:58;7.68;;;3.33;;
21148;SDS011;10732;51.472;6.466;2023-08-24T13:46:24;10.38;;;3.95;;
21148;SDS011;10732;51.472;6.466;2023-08-24T13:48:50;7.97;;;3.50;;
21148;SDS011;10732;51.472;6.466;2023-08-24T13:51:15;6.90;;;3.40;;
21148;SDS011;10732;51.472;6.466;2023-08-24T13:53:41;8.20;;;3.65;;
21148;SDS011;10732;51.472;6.466;2023-08-24T13:56:06;7.90;;;3.80;;
21148;SDS011;10732;51.472;6.466;2023-08-24T13:58:32;8.85;;;4.30;;
21148;SDS011;10732;51.472;6.466;2023-08-24T14:00:57;8.60;;;3.75;;
21148;SDS011;10732;51.472;6.466;2023-08-24T14:03:23;11.77;;;4.45;;
21148;SDS011;10732;51.472;6.466;2023-08-24T14:05:49;5.97;;;3.92;;
21148;SDS011;10732;51.472;6.466;2023-08-24T14:08:19;7.20;;;4.60;;
21148;SDS011;10732;51.472;6.466;2023-08-24T14:10:44;9.23;;;4.18;;
21148;SDS011;10732;51.472;6.466;2023-08-24T14:13:13;9.32;;;4.50;;
21148;SDS011;10732;51.472;6.466;2023-08-24T14:15:39;8.35;;;4.18;;
21148;SDS011;10732;51.472;6.466;2023-08-24T14:18:05;7.00;;;4.60;;
21148;SDS011;10732;51.472;6.466;2023-08-24T14:20:30;7.70;;;4.53;;
21148;SDS011;10732;51.472;6.466;2023-08-24T14:22:56;8.05;;;4.38;;
21148;SDS011;10732;51.472;6.466;2023-08-24T14:25:22;7.45;;;4.32;;
21148;SDS011;10732;51.472;6.466;2023-08-24T14:27:47;6.65;;;3.83;;
21148;SDS011;10732;51.472;6.466;2023-08-24T14:30:13;8.90;;;4.40;;
21148;SDS011;10732;51.472;6.466;2023-08-24T14:32:39;8.63;;;4.35;;
21148;SDS011;10732;51.472;6.466;2023-08-24T14:35:05;5.97;;;4.10;;
21148;SDS011;10732;51.472;6.466;2023-08-24T14:37:31;6.78;;;4.07;;
21148;SDS011;10732;51.472;6.466;2023-08-24T14:39:58;6.38;;;4.22;;
21148;SDS011;10732;51.472;6.466;2023-08-24T14:42:24;6.72;;;3.95;;
21148;SDS011;10732;51.472;6.466;2023-08-24T14:44:49;7.13;;;3.97;;
21148;SDS011;10732;51.472;6.466;2023-08-24T14:47:15;10.23;;;4.10;;
21148;SDS011;10732;51.472;6.466;2023-08-24T14:49:40;8.93;;;4.03;;
21148;SDS011;10732;51.472;6.466;2023-08-24T14:52:06;7.78;;;4.10;;
21148;SDS011;10732;51.472;6.466;2023-08-24T14:54:31;9.18;;;4.07;;